New Concord, Ohio
Current Conditions -  °F | °C
As of 3:53 AM on Sunday 23 Nov 2014 (Local Time) from KZZV Reporting Station
Clear Clear  
Wind Chill: 44°   Ceiling: Unl
Heat Index: 47°   Visibility: 10mi
Dew Point: 30°   Wind: 7mph
Humidity: 52%   Direction: 180°S
Pressure: 30.07"   Gusts: NA
Location:  39.99°N, 81.73°W
Report Text: KZZV 230853Z AUTO 18006KT 10SM CLR 08/M01 A3007 RMK AO2 SLP185 T00831011 58004
Loading
Personal Weather Stations






























Interactive Weather Map New forecast layout! Learn more

10-Day Weather Forecast

Advertisements
Track Severe Weather on mobile